M I D A S
Marine Information and Data Acquisition System
Tripno 2280 of the Zeeleeuw from 2012-03-26 06:45:06 to 2012-03-26 15:07:12
Back to CruiseResearch ActivitiesStationsMapUnderway DataData graphs

EquipmentUnitsComments
TimeDGPSUTC
LatitudeDGPSDM.mWGS84
LongitudeDGPSDM.mWGS84
SpeedMeteo Stationm/sRelative wind speed
DirectionMeteo StationdegRelative wind direction
TemperatureMeteo Stationdeg CelciusAir temperature
PressureMeteo StationPaAtmospheric pressure
HumidityMeteo Station%Relative humidity
Missing or incorrect values are displayed as -999
Metereological data collected by the RV Zeeleeuw from 2012-03-26 06:21:21 to 2012-03-26 15:28:32
Time Latitude Longitude Speed Direction Temperature Pressure Humidity
2012-03-26 06:22 51°13.638 2°56.021 -999 -999 -999 -999 -999
2012-03-26 06:23 51°13.638 2°56.021 1.1 31 7.3 103500 40
2012-03-26 06:24 51°13.636 2°56.02 -999 34 7.3 103510 41
2012-03-26 06:25 51°13.636 2°56.02 0.3 239 7.3 103510 41
2012-03-26 06:26 51°13.636 2°56.02 -999 253 7.3 103510 41
2012-03-26 06:27 51°13.636 2°56.02 0.1 243 7.3 103510 41
2012-03-26 06:28 51°13.636 2°56.02 0.5 244 7.3 103520 41
2012-03-26 06:29 51°13.636 2°56.02 0.1 242 7.3 103520 42
2012-03-26 06:30 51°13.635 2°56.02 0.1 238 7.3 103520 41
2012-03-26 06:31 51°13.636 2°56.019 1.6 237 7.3 103520 40
2012-03-26 06:32 51°13.636 2°56.019 0.2 31 7.3 103520 40
2012-03-26 06:33 51°13.636 2°56.019 0.9 236 7.3 103530 40
2012-03-26 06:34 51°13.636 2°56.019 0.1 251 7.3 103530 40
2012-03-26 06:35 51°13.635 2°56.019 -999 34 7.3 103530 40
2012-03-26 06:36 51°13.635 2°56.019 0.1 239 7.3 103530 40
2012-03-26 06:37 51°13.633 2°56.021 0.5 241 7.3 103540 40
2012-03-26 06:38 51°13.635 2°56.019 1 33 7.3 103540 40
2012-03-26 06:39 51°13.634 2°56.02 0.9 236 7.3 103540 39
2012-03-26 06:40 51°13.633 2°56.019 1.3 31 7.3 103550 40
2012-03-26 06:41 51°13.64 2°55.981 0.7 261 7.3 103550 40
2012-03-26 06:42 51°13.67 2°55.874 1 264 7.3 103550 40
2012-03-26 06:43 51°13.725 2°55.764 2.3 33 7.3 103550 41
2012-03-26 06:44 51°13.789 2°55.67 2.8 33 7.2 103550 41
2012-03-26 06:45 51°13.868 2°55.619 1.9 33 7.2 103550 41
2012-03-26 06:46 51°13.936 2°55.623 3.8 28 7.2 103560 41
2012-03-26 06:47 51°13.968 2°55.648 0.3 34 7.2 103560 41
2012-03-26 06:48 51°13.978 2°55.609 1 5 7.3 103560 41
2012-03-26 06:49 51°14.052 2°55.508 4.6 350 7.3 103560 41
2012-03-26 06:50 51°14.185 2°55.375 4.7 344 7.3 103560 42
2012-03-26 06:51 51°14.329 2°55.227 4.4 348 7.3 103560 42
2012-03-26 06:52 51°14.489 2°55.077 5.6 349 7.4 103550 44
2012-03-26 06:53 51°14.644 2°54.88 6.7 346 7.4 103550 44
2012-03-26 06:54 51°14.799 2°54.651 2.1 350 7.6 103550 47
2012-03-26 06:55 51°14.971 2°54.448 2.3 352 7.7 103550 47
2012-03-26 06:56 51°15.137 2°54.253 3.1 353 7.7 103540 46
2012-03-26 06:57 51°15.309 2°54.06 2.7 348 7.8 103550 46
2012-03-26 06:58 51°15.483 2°53.871 0.5 346 7.9 103560 49
2012-03-26 06:59 51°15.66 2°53.677 7.7 349 7.9 103560 49
2012-03-26 07:00 51°15.832 2°53.487 5.9 348 7.8 103550 50
2012-03-26 07:01 51°16.017 2°53.319 7.6 347 7.8 103550 50
2012-03-26 07:02 51°16.199 2°53.145 6.3 348 7.8 103560 50
2012-03-26 07:03 51°16.377 2°52.956 6.7 348 7.8 103550 50
2012-03-26 07:04 51°16.567 2°52.803 8.8 350 7.7 103560 51
2012-03-26 07:05 51°16.756 2°52.662 7.9 344 7.7 103560 51
2012-03-26 07:06 51°16.956 2°52.628 10.2 343 7.7 103560 51
2012-03-26 07:07 51°17.158 2°52.615 9.7 342 7.7 103560 51
2012-03-26 07:08 51°17.357 2°52.618 10.4 343 7.8 103560 51
2012-03-26 07:09 51°17.559 2°52.606 8.7 343 7.8 103570 51
2012-03-26 07:10 51°17.748 2°52.658 10.9 339 7.8 103580 50
2012-03-26 07:11 51°17.939 2°52.714 10.3 342 7.8 103570 50
2012-03-26 07:12 51°18.125 2°52.791 11.5 335 7.9 103570 51
2012-03-26 07:13 51°18.253 2°53.006 10.8 332 7.9 103580 50
2012-03-26 07:14 51°18.373 2°53.235 11.3 330 7.9 103580 50
2012-03-26 07:15 51°18.477 2°53.481 9.1 331 7.9 103580 50
2012-03-26 07:16 51°18.586 2°53.725 8.9 330 7.9 103590 50
2012-03-26 07:17 51°18.683 2°53.982 12.3 332 7.9 103580 50
2012-03-26 07:18 51°18.785 2°54.231 11.2 330 7.9 103590 50
2012-03-26 07:19 51°18.862 2°54.502 12.3 329 8 103590 49
2012-03-26 07:20 51°18.964 2°54.752 11.7 331 8 103590 49
2012-03-26 07:21 51°19.043 2°55.021 12 331 8 103590 49
2012-03-26 07:22 51°19.143 2°55.271 11.4 331 8 103590 50
2012-03-26 07:23 51°19.23 2°55.532 8.4 329 8 103590 50
2012-03-26 07:24 51°19.319 2°55.791 11.8 331 8 103590 50
2012-03-26 07:25 51°19.403 2°56.055 11.1 330 8 103600 49
2012-03-26 07:26 51°19.494 2°56.315 8.8 331 8 103600 50
2012-03-26 07:27 51°19.592 2°56.576 10.8 329 7.9 103600 50
2012-03-26 07:28 51°19.673 2°56.841 11.8 329 7.9 103610 50
2012-03-26 07:29 51°19.773 2°57.093 9.6 331 7.9 103610 50
2012-03-26 07:30 51°19.878 2°57.338 10.9 328 7.9 103610 49
2012-03-26 07:31 51°19.959 2°57.604 11.1 329 7.9 103600 50
2012-03-26 07:32 51°20.045 2°57.868 11.3 330 8 103600 50
2012-03-26 07:33 51°20.141 2°58.123 10.7 329 8 103610 50
2012-03-26 07:34 51°20.234 2°58.38 10 329 7.9 103610 50
2012-03-26 07:35 51°20.319 2°58.643 9 328 8 103610 50
2012-03-26 07:36 51°20.381 2°58.919 10.7 328 8 103610 50
2012-03-26 07:37 51°20.442 2°59.193 11.8 328 8 103610 49
2012-03-26 07:38 51°20.51 2°59.462 9 329 8 103610 50
2012-03-26 07:39 51°20.594 2°59.717 10.6 328 8 103610 50
2012-03-26 07:40 51°20.671 2°59.983 9.9 330 8 103610 49
2012-03-26 07:41 51°20.736 3°0.243 8.2 326 8 103610 49
2012-03-26 07:42 51°20.768 3°0.522 8.3 329 8 103620 49
2012-03-26 07:43 51°20.832 3°0.787 10.6 328 8 103620 49
2012-03-26 07:44 51°20.869 3°1.065 10.5 325 8 103620 50
2012-03-26 07:45 51°20.896 3°1.344 10.8 325 8 103620 50
2012-03-26 07:46 51°20.929 3°1.606 11.5 325 8 103620 49
2012-03-26 07:47 51°20.978 3°1.879 8.7 327 8 103610 49
2012-03-26 07:48 51°21.04 3°2.139 11.4 329 8 103620 49
2012-03-26 07:49 51°21.089 3°2.418 8 327 8 103620 49
2012-03-26 07:50 51°21.116 3°2.697 10.2 328 8 103620 49
2012-03-26 07:51 51°21.157 3°2.979 8.4 328 8 103620 48
2012-03-26 07:52 51°21.209 3°3.243 9 330 8 103620 49
2012-03-26 07:53 51°21.277 3°3.505 9.4 330 7.9 103630 49
2012-03-26 07:54 51°21.324 3°3.775 12.7 327 7.9 103630 49
2012-03-26 07:55 51°21.378 3°4.046 8.4 328 7.9 103640 49
2012-03-26 07:56 51°21.42 3°4.317 11.2 327 7.9 103630 49
2012-03-26 07:57 51°21.469 3°4.576 10.3 328 8 103640 49
2012-03-26 07:58 51°21.531 3°4.835 10.7 329 7.9 103630 49
2012-03-26 07:59 51°21.585 3°5.103 9.3 329 7.9 103630 48
2012-03-26 08:00 51°21.63 3°5.364 9.9 329 7.9 103630 48
2012-03-26 08:01 51°21.685 3°5.622 10.6 327 7.9 103630 49
2012-03-26 08:02 51°21.719 3°5.888 10.2 329 7.9 103620 49
2012-03-26 08:03 51°21.759 3°6.149 9.7 329 8 103620 49
2012-03-26 08:04 51°21.796 3°6.412 9.7 327 7.9 103620 49
2012-03-26 08:05 51°21.819 3°6.684 8.2 327 7.9 103610 49
2012-03-26 08:06 51°21.871 3°6.938 10.4 327 8 103620 49
2012-03-26 08:07 51°21.893 3°7.21 10.1 327 7.9 103610 50
2012-03-26 08:08 51°21.92 3°7.484 11 328 8 103610 49
2012-03-26 08:09 51°21.971 3°7.75 8.4 328 8 103610 49
2012-03-26 08:10 51°22.02 3°8.017 8.1 327 8 103620 49
2012-03-26 08:11 51°22.04 3°8.295 10.2 328 8 103630 49
2012-03-26 08:12 51°22.065 3°8.578 10.1 328 8 103620 49
2012-03-26 08:13 51°22.108 3°8.844 7.8 329 8 103630 49
2012-03-26 08:14 51°22.135 3°9.119 9.2 327 7.9 103630 49
2012-03-26 08:15 51°22.134 3°9.393 9.2 325 8 103620 49
2012-03-26 08:16 51°22.111 3°9.669 8.7 324 8 103620 50
2012-03-26 08:17 51°22.103 3°9.885 6.7 324 8 103630 49
2012-03-26 08:18 51°22.098 3°10.084 7.5 323 8.1 103630 50
2012-03-26 08:19 51°22.099 3°10.35 7.8 326 8.1 103620 50
2012-03-26 08:20 51°22.131 3°10.629 9.9 327 8.1 103620 49
2012-03-26 08:21 51°22.176 3°10.903 10.2 326 8.1 103620 50
2012-03-26 08:22 51°22.198 3°11.182 8.2 324 8.1 103620 50
2012-03-26 08:23 51°22.253 3°11.451 9.6 327 8.1 103630 49
2012-03-26 08:24 51°22.328 3°11.708 9.2 326 8.1 103630 50
2012-03-26 08:25 51°22.399 3°11.967 8 325 8.1 103640 49
2012-03-26 08:26 51°22.457 3°12.231 8.9 325 8.1 103640 50
2012-03-26 08:27 51°22.538 3°12.476 8.2 329 8.1 103650 51
2012-03-26 08:28 51°22.621 3°12.719 8.1 329 8.1 103650 50
2012-03-26 08:29 51°22.68 3°12.952 4.9 323 8 103640 51
2012-03-26 08:30 51°22.681 3°13.091 4.6 324 8.1 103650 51
2012-03-26 08:31 51°22.68 3°13.194 4.8 320 8.1 103650 50
2012-03-26 08:32 51°22.667 3°13.271 2.1 39 8.2 103650 51
2012-03-26 08:33 51°22.648 3°13.259 0.1 263 8.3 103660 49
2012-03-26 08:34 51°22.64 3°13.216 -999 35 8.3 103660 50
2012-03-26 08:35 51°22.633 3°13.169 -999 35 8.3 103660 49
2012-03-26 08:36 51°22.626 3°13.124 -999 35 8.2 103660 49
2012-03-26 08:37 51°22.619 3°13.076 -999 34 8.5 103660 51
2012-03-26 08:38 51°22.611 3°13.026 -999 35 8.6 103660 49
2012-03-26 08:39 51°22.604 3°12.977 -999 35 8.5 103660 49
2012-03-26 08:40 51°22.596 3°12.926 -999 41 8.3 103650 50
2012-03-26 08:41 51°22.587 3°12.876 -999 38 8.2 103650 50
2012-03-26 08:42 51°22.58 3°12.827 -999 35 8.2 103660 51
2012-03-26 08:43 51°22.577 3°12.75 -999 13 8.2 103650 51
2012-03-26 08:44 51°22.624 3°12.677 3.1 339 8.1 103650 51
2012-03-26 08:45 51°22.695 3°12.779 7.4 325 8.1 103650 52
2012-03-26 08:46 51°22.699 3°13.035 7.9 323 8.1 103640 52
2012-03-26 08:47 51°22.686 3°13.305 6.9 318 8.2 103640 51
2012-03-26 08:48 51°22.626 3°13.406 3.5 242 8.3 103650 52
2012-03-26 08:49 51°22.613 3°13.383 3.1 248 8.4 103660 52
2012-03-26 08:50 51°22.609 3°13.33 2.1 244 8.5 103660 52
2012-03-26 08:51 51°22.602 3°13.289 2.4 247 8.6 103660 51
2012-03-26 08:52 51°22.592 3°13.255 2.8 247 8.8 103660 51
2012-03-26 08:53 51°22.583 3°13.226 2.2 244 8.9 103660 51
2012-03-26 08:54 51°22.575 3°13.2 2.5 238 9 103660 51
2012-03-26 08:55 51°22.567 3°13.179 2.9 31 9 103660 50
2012-03-26 08:56 51°22.561 3°13.16 2.5 234 9 103660 50
2012-03-26 08:57 51°22.556 3°13.145 2.7 33 9 103660 50
2012-03-26 08:58 51°22.553 3°13.134 3.6 40 8.9 103670 50
2012-03-26 08:59 51°22.552 3°13.126 3.6 30 8.9 103660 51
2012-03-26 09:00 51°22.556 3°13.141 4.1 315 8.8 103660 50
2012-03-26 09:01 51°22.562 3°13.167 4.4 316 8.7 103660 50
2012-03-26 09:02 51°22.566 3°13.171 4 318 8.6 103660 50
2012-03-26 09:03 51°22.566 3°13.162 3.9 317 8.6 103660 50
2012-03-26 09:04 51°22.565 3°13.145 3.4 317 8.6 103660 50
2012-03-26 09:05 51°22.562 3°13.123 3.3 315 8.6 103660 50
2012-03-26 09:06 51°22.558 3°13.098 2.5 31 8.7 103660 50
2012-03-26 09:07 51°22.552 3°13.072 2.6 38 8.7 103660 51
2012-03-26 09:08 51°22.546 3°13.043 2.8 39 8.7 103660 50
2012-03-26 09:09 51°22.54 3°13.013 2.6 34 8.8 103670 50
2012-03-26 09:10 51°22.533 3°12.981 2.6 40 8.8 103670 50
2012-03-26 09:11 51°22.526 3°12.95 3.3 31 8.8 103660 50
2012-03-26 09:12 51°22.518 3°12.926 3.6 37 8.8 103670 50
2012-03-26 09:13 51°22.534 3°12.969 5.5 329 8.8 103660 50
2012-03-26 09:14 51°22.595 3°13.023 4 332 8.7 103670 50
2012-03-26 09:15 51°22.655 3°13.065 3.6 333 8.7 103670 51
2012-03-26 09:16 51°22.707 3°13.109 3.2 331 8.6 103670 51
2012-03-26 09:17 51°22.747 3°13.161 3.2 329 8.6 103670 52
2012-03-26 09:18 51°22.784 3°13.214 3.5 331 8.6 103680 51
2012-03-26 09:19 51°22.825 3°13.255 -999 334 8.6 103680 52
2012-03-26 09:20 51°22.871 3°13.282 2.7 334 8.6 103680 52
2012-03-26 09:21 51°22.922 3°13.294 0.3 338 8.6 103680 52
2012-03-26 09:22 51°22.974 3°13.306 -999 334 8.6 103680 52
2012-03-26 09:23 51°23.011 3°13.349 2.2 328 8.6 103680 52
2012-03-26 09:24 51°23.044 3°13.398 2.7 329 8.6 103690 52
2012-03-26 09:25 51°23.079 3°13.446 2 332 8.6 103680 53
2012-03-26 09:26 51°23.12 3°13.49 2.2 331 8.6 103680 53
2012-03-26 09:27 51°23.162 3°13.539 4.4 331 8.6 103680 53
2012-03-26 09:28 51°23.207 3°13.585 4.1 335 8.6 103680 53
2012-03-26 09:29 51°23.257 3°13.619 4 336 8.7 103680 52
2012-03-26 09:30 51°23.301 3°13.663 0.1 326 8.8 103680 53
2012-03-26 09:31 51°23.328 3°13.731 1 324 8.8 103680 53
2012-03-26 09:32 51°23.351 3°13.805 1.1 323 8.9 103680 53
2012-03-26 09:33 51°23.369 3°13.881 0.3 322 8.9 103680 53
2012-03-26 09:34 51°23.378 3°13.958 1.9 317 8.9 103680 53
2012-03-26 09:35 51°23.363 3°14.027 0.2 33 9 103680 52
2012-03-26 09:36 51°23.336 3°14.056 -999 246 9 103680 52
2012-03-26 09:37 51°23.308 3°14.062 -999 254 9.1 103680 53
2012-03-26 09:38 51°23.286 3°14.085 0.1 32 9.1 103680 53
2012-03-26 09:39 51°23.319 3°14.116 1.5 337 9.1 103680 52
2012-03-26 09:40 51°23.439 3°14.033 7.2 338 9 103670 52
2012-03-26 09:41 51°23.623 3°13.902 7.6 338 8.8 103660 53
2012-03-26 09:42 51°23.817 3°13.778 8.4 340 8.7 103660 54
2012-03-26 09:43 51°24.013 3°13.685 7.7 341 8.7 103660 54
2012-03-26 09:44 51°24.203 3°13.549 7.2 342 8.7 103660 53
2012-03-26 09:45 51°24.381 3°13.353 8.2 341 8.7 103670 53
2012-03-26 09:46 51°24.519 3°13.076 7.7 344 8.6 103670 53
2012-03-26 09:47 51°24.609 3°12.753 5.6 348 8.4 103670 53
2012-03-26 09:48 51°24.636 3°12.385 2.9 348 8.2 103670 54
2012-03-26 09:49 51°24.648 3°12.023 5.2 350 8.1 103670 53
2012-03-26 09:50 51°24.658 3°11.649 5.1 350 8 103670 54
2012-03-26 09:51 51°24.658 3°11.289 5.2 350 8 103670 54
2012-03-26 09:52 51°24.648 3°10.929 4.9 349 7.9 103680 54
2012-03-26 09:53 51°24.632 3°10.571 4 351 7.9 103670 53
2012-03-26 09:54 51°24.609 3°10.22 2.6 351 7.8 103680 54
2012-03-26 09:55 51°24.632 3°9.867 5.1 352 7.8 103670 54
2012-03-26 09:56 51°24.685 3°9.539 5.8 355 7.7 103670 54
2012-03-26 09:57 51°24.728 3°9.201 5 357 7.7 103680 54
2012-03-26 09:58 51°24.764 3°8.871 5.4 356 7.7 103680 54
2012-03-26 09:59 51°24.817 3°8.548 4.6 355 7.7 103680 54
2012-03-26 10:00 51°24.863 3°8.222 4.3 355 7.7 103670 54
2012-03-26 10:01 51°24.897 3°7.895 3.7 354 7.7 103680 55
2012-03-26 10:02 51°24.987 3°7.6 7.7 350 7.6 103670 55
2012-03-26 10:03 51°25.141 3°7.435 9.4 343 7.6 103660 55
2012-03-26 10:04 51°25.327 3°7.416 10.2 338 7.7 103660 54
2012-03-26 10:05 51°25.5 3°7.496 10.4 335 7.8 103660 54
2012-03-26 10:06 51°25.664 3°7.635 7.8 335 7.9 103660 55
2012-03-26 10:07 51°25.824 3°7.764 10.4 334 8 103660 54
2012-03-26 10:08 51°25.991 3°7.883 8.4 335 8 103670 53
2012-03-26 10:09 51°26.161 3°7.982 8.3 336 8.1 103670 54
2012-03-26 10:10 51°26.29 3°8.113 8.1 330 8.1 103670 53
2012-03-26 10:11 51°26.355 3°8.222 7 333 8.1 103680 53
2012-03-26 10:12 51°26.432 3°8.304 4.6 333 8.2 103670 54
2012-03-26 10:13 51°26.467 3°8.36 4.7 325 8.2 103680 53
2012-03-26 10:14 51°26.448 3°8.372 3.5 240 8.2 103690 54
2012-03-26 10:15 51°26.42 3°8.368 3.6 253 8.3 103680 54
2012-03-26 10:16 51°26.391 3°8.356 3.5 260 8.4 103690 55
2012-03-26 10:17 51°26.357 3°8.354 3.2 241 8.5 103680 54
2012-03-26 10:18 51°26.346 3°8.41 3.4 335 8.6 103680 53
2012-03-26 10:19 51°26.415 3°8.403 5.4 342 8.5 103680 52
2012-03-26 10:20 51°26.48 3°8.397 0.2 339 8.3 103670 53
2012-03-26 10:21 51°26.494 3°8.418 -999 333 8.2 103680 54
2012-03-26 10:22 51°26.484 3°8.433 -999 325 8.3 103680 54
2012-03-26 10:23 51°26.469 3°8.444 -999 322 8.4 103680 54
2012-03-26 10:24 51°26.452 3°8.449 -999 324 8.4 103680 54
2012-03-26 10:25 51°26.433 3°8.451 -999 325 8.5 103680 54
2012-03-26 10:26 51°26.412 3°8.45 -999 327 8.5 103680 54
2012-03-26 10:27 51°26.392 3°8.447 -999 328 8.5 103680 54
2012-03-26 10:28 51°26.373 3°8.445 -999 330 8.6 103670 54
2012-03-26 10:29 51°26.355 3°8.442 -999 332 8.6 103670 54
2012-03-26 10:30 51°26.338 3°8.438 -999 334 8.7 103670 54
2012-03-26 10:31 51°26.32 3°8.432 -999 336 8.6 103670 54
2012-03-26 10:32 51°26.304 3°8.426 -999 340 8.6 103670 54
2012-03-26 10:33 51°26.289 3°8.418 -999 340 8.5 103670 54
2012-03-26 10:34 51°26.274 3°8.408 -999 348 8.4 103670 54
2012-03-26 10:35 51°26.26 3°8.396 -999 352 8.3 103670 54
2012-03-26 10:36 51°26.246 3°8.379 -999 355 8.1 103670 54
2012-03-26 10:37 51°26.233 3°8.358 -999 1 8 103670 55
2012-03-26 10:38 51°26.22 3°8.334 -999 5 7.9 103670 55
2012-03-26 10:39 51°26.207 3°8.307 -999 8 7.9 103670 55
2012-03-26 10:40 51°26.202 3°8.268 -999 4 7.9 103670 55
2012-03-26 10:41 51°26.226 3°8.223 -999 350 7.8 103670 55
2012-03-26 10:42 51°26.266 3°8.208 -999 342 7.8 103670 56
2012-03-26 10:43 51°26.31 3°8.239 -999 335 7.9 103660 56
2012-03-26 10:44 51°26.35 3°8.308 0.1 330 8 103660 56
2012-03-26 10:45 51°26.381 3°8.394 -999 330 8 103660 56
2012-03-26 10:46 51°26.414 3°8.465 -999 331 8.1 103660 56
2012-03-26 10:47 51°26.442 3°8.524 -999 331 8.1 103660 56
2012-03-26 10:48 51°26.464 3°8.578 -999 330 8.2 103670 55
2012-03-26 10:49 51°26.484 3°8.637 -999 328 8.2 103660 55
2012-03-26 10:50 51°26.503 3°8.693 -999 330 8.2 103660 54
2012-03-26 10:51 51°26.524 3°8.748 -999 329 8.2 103660 55
2012-03-26 10:52 51°26.547 3°8.801 -999 331 8.2 103660 55
2012-03-26 10:53 51°26.572 3°8.853 -999 330 8.2 103650 55
2012-03-26 10:54 51°26.597 3°8.908 0.6 329 8.2 103660 55
2012-03-26 10:55 51°26.623 3°8.976 -999 327 8.2 103650 55
2012-03-26 10:56 51°26.648 3°9.047 -999 327 8.2 103660 55
2012-03-26 10:57 51°26.676 3°9.12 -999 328 8.2 103650 55
2012-03-26 10:58 51°26.701 3°9.197 0.1 320 8.3 103650 54
2012-03-26 10:59 51°26.7 3°9.291 -999 35 8.3 103660 55
2012-03-26 11:00 51°26.668 3°9.389 0.1 243 8.2 103650 55
2012-03-26 11:01 51°26.604 3°9.465 0.7 260 8.2 103660 55
2012-03-26 11:02 51°26.527 3°9.477 -999 35 8.2 103670 55
2012-03-26 11:03 51°26.465 3°9.462 -999 35 8.2 103670 54
2012-03-26 11:04 51°26.411 3°9.439 -999 23 8.1 103670 54
2012-03-26 11:05 51°26.347 3°9.334 -999 13 8.1 103670 55
2012-03-26 11:06 51°26.378 3°9.191 5.7 347 8 103660 54
2012-03-26 11:07 51°26.501 3°9.176 10.1 337 7.9 103650 55
2012-03-26 11:08 51°26.664 3°9.234 9.5 334 8 103640 55
2012-03-26 11:09 51°26.837 3°9.313 12.5 334 8 103640 55
2012-03-26 11:10 51°27.011 3°9.379 12.9 335 8 103640 55
2012-03-26 11:11 51°27.189 3°9.417 11.5 337 8 103640 55
2012-03-26 11:12 51°27.371 3°9.434 12 336 8 103650 55
2012-03-26 11:13 51°27.543 3°9.486 11.4 334 8 103650 55
2012-03-26 11:14 51°27.721 3°9.536 11.2 336 8 103650 54
2012-03-26 11:15 51°27.897 3°9.565 11.5 334 8 103650 55
2012-03-26 11:16 51°28.071 3°9.637 12.3 334 7.9 103650 55
2012-03-26 11:17 51°28.248 3°9.669 9.3 336 7.9 103650 55
2012-03-26 11:18 51°28.428 3°9.68 9.5 333 7.9 103650 54
2012-03-26 11:19 51°28.601 3°9.753 11.1 333 7.9 103650 55
2012-03-26 11:20 51°28.757 3°9.79 8.6 336 7.9 103650 54
2012-03-26 11:21 51°28.854 3°9.815 6.8 332 7.8 103660 55
2012-03-26 11:22 51°28.89 3°9.848 4.4 323 7.8 103670 53
2012-03-26 11:23 51°28.899 3°9.878 5.1 332 7.9 103670 54
2012-03-26 11:24 51°28.914 3°9.882 3.2 339 7.8 103660 55
2012-03-26 11:25 51°28.9 3°9.864 5.9 350 7.8 103670 54
2012-03-26 11:26 51°28.884 3°9.843 1.4 348 7.7 103670 54
2012-03-26 11:27 51°28.883 3°9.841 -999 331 7.6 103670 54
2012-03-26 11:28 51°28.883 3°9.842 -999 335 7.6 103670 55
2012-03-26 11:29 51°28.883 3°9.841 -999 336 7.7 103670 55
2012-03-26 11:30 51°28.884 3°9.84 -999 337 7.7 103670 54
2012-03-26 11:31 51°28.885 3°9.838 0.1 336 7.8 103670 54
2012-03-26 11:32 51°28.885 3°9.838 -999 335 7.8 103670 54
2012-03-26 11:33 51°28.884 3°9.839 -999 337 7.8 103660 54
2012-03-26 11:34 51°28.884 3°9.839 -999 339 7.8 103670 54
2012-03-26 11:35 51°28.884 3°9.839 -999 339 7.8 103670 54
2012-03-26 11:36 51°28.885 3°9.838 -999 339 7.8 103670 54
2012-03-26 11:37 51°28.885 3°9.837 -999 336 7.8 103670 54
2012-03-26 11:38 51°28.884 3°9.838 -999 337 7.8 103660 54
2012-03-26 11:39 51°28.884 3°9.839 -999 339 7.8 103660 54
2012-03-26 11:40 51°28.884 3°9.839 -999 339 7.8 103660 54
2012-03-26 11:41 51°28.884 3°9.837 -999 338 7.8 103660 54
2012-03-26 11:42 51°28.885 3°9.837 -999 336 7.8 103660 54
2012-03-26 11:43 51°28.885 3°9.838 -999 338 7.8 103660 54
2012-03-26 11:44 51°28.884 3°9.839 -999 336 7.8 103660 54
2012-03-26 11:45 51°28.884 3°9.839 -999 337 7.8 103660 54
2012-03-26 11:46 51°28.884 3°9.839 -999 337 7.8 103660 53
2012-03-26 11:47 51°28.884 3°9.839 -999 337 7.8 103660 54
2012-03-26 11:48 51°28.884 3°9.839 -999 335 7.8 103660 54
2012-03-26 11:49 51°28.884 3°9.839 0.1 337 7.8 103660 54
2012-03-26 11:50 51°28.884 3°9.839 1.2 336 7.8 103660 54
2012-03-26 11:51 51°28.884 3°9.839 0.8 334 7.8 103660 54
2012-03-26 11:52 51°28.884 3°9.84 0.1 337 7.8 103660 54
2012-03-26 11:53 51°28.884 3°9.841 -999 336 7.8 103660 54
2012-03-26 11:54 51°28.884 3°9.84 -999 337 7.8 103660 54
2012-03-26 11:55 51°28.889 3°9.844 0.1 333 7.8 103660 54
2012-03-26 11:56 51°28.898 3°9.855 1 334 7.8 103660 55
2012-03-26 11:57 51°28.905 3°9.866 7 334 7.8 103650 54
2012-03-26 11:58 51°28.906 3°9.869 4.5 336 7.8 103660 54
2012-03-26 11:59 51°28.972 3°9.933 9.4 328 7.7 103650 55
2012-03-26 12:00 51°29.072 3°10.118 9.7 323 7.7 103640 55
2012-03-26 12:01 51°29.206 3°10.255 14.2 333 7.7 103630 55
2012-03-26 12:02 51°29.359 3°10.328 5.6 333 7.7 103630 54
2012-03-26 12:03 51°29.519 3°10.407 10.1 333 7.6 103650 54
2012-03-26 12:04 51°29.677 3°10.48 12.4 334 7.6 103640 55
2012-03-26 12:05 51°29.796 3°10.506 8 339 7.6 103640 54
2012-03-26 12:06 51°29.833 3°10.538 8.1 325 7.6 103650 54
2012-03-26 12:07 51°29.85 3°10.575 6.8 334 7.7 103650 55
2012-03-26 12:08 51°29.871 3°10.571 7.7 348 7.6 103650 54
2012-03-26 12:09 51°29.894 3°10.57 5.6 336 7.5 103650 55
2012-03-26 12:10 51°29.896 3°10.574 5.1 331 7.5 103650 54
2012-03-26 12:11 51°29.882 3°10.574 5.4 322 7.6 103650 55
2012-03-26 12:12 51°29.874 3°10.571 6.7 337 7.6 103660 55
2012-03-26 12:13 51°29.875 3°10.569 6.2 341 7.6 103650 54
2012-03-26 12:14 51°29.876 3°10.565 6.3 341 7.6 103650 55
2012-03-26 12:15 51°29.876 3°10.565 6.7 340 7.6 103650 55
2012-03-26 12:16 51°29.875 3°10.568 5.7 334 7.6 103650 54
2012-03-26 12:17 51°29.874 3°10.573 6.9 334 7.6 103660 54
2012-03-26 12:18 51°29.874 3°10.575 6.7 339 7.6 103650 53
2012-03-26 12:19 51°29.874 3°10.571 7.1 342 7.6 103650 55
2012-03-26 12:20 51°29.875 3°10.567 6.3 340 7.6 103650 54
2012-03-26 12:21 51°29.875 3°10.566 6 338 7.6 103650 55
2012-03-26 12:22 51°29.875 3°10.568 6.2 335 7.6 103650 55
2012-03-26 12:23 51°29.874 3°10.572 6.5 335 7.6 103660 55
2012-03-26 12:24 51°29.874 3°10.575 6.1 339 7.6 103650 54
2012-03-26 12:25 51°29.874 3°10.573 6.7 341 7.6 103650 54
2012-03-26 12:26 51°29.875 3°10.569 7 342 7.6 103650 53
2012-03-26 12:27 51°29.875 3°10.568 7.3 337 7.6 103650 55
2012-03-26 12:28 51°29.874 3°10.57 7.1 337 7.6 103650 54
2012-03-26 12:29 51°29.878 3°10.573 6.5 339 7.6 103650 55
2012-03-26 12:30 51°29.887 3°10.577 6.8 339 7.6 103650 54
2012-03-26 12:31 51°29.89 3°10.583 6.4 338 7.7 103650 54
2012-03-26 12:32 51°29.886 3°10.587 5.5 336 7.7 103650 55
2012-03-26 12:33 51°29.894 3°10.582 6.3 357 7.6 103640 54
2012-03-26 12:34 51°29.898 3°10.497 5 29 7.5 103660 55
2012-03-26 12:35 51°29.833 3°10.278 4.4 9 7.5 103650 55
2012-03-26 12:36 51°29.768 3°9.96 4.9 6 7.4 103650 55
2012-03-26 12:37 51°29.673 3°9.645 3.5 8 7.3 103650 55
2012-03-26 12:38 51°29.562 3°9.34 3.3 359 7.3 103650 54
2012-03-26 12:39 51°29.457 3°9.03 2.5 4 7.3 103650 55
2012-03-26 12:40 51°29.345 3°8.728 4 1 7.3 103650 55
2012-03-26 12:41 51°29.252 3°8.413 3.4 5 7.2 103650 55
2012-03-26 12:42 51°29.139 3°8.112 3.4 355 7.2 103660 54
2012-03-26 12:43 51°29.049 3°7.794 4 357 7.2 103650 55
2012-03-26 12:44 51°28.95 3°7.484 2.2 359 7.2 103650 56
2012-03-26 12:45 51°28.858 3°7.169 3.9 355 7.2 103650 56
2012-03-26 12:46 51°28.776 3°6.849 4.3 357 7.2 103650 55
2012-03-26 12:47 51°28.685 3°6.534 4.1 356 7.2 103650 56
2012-03-26 12:48 51°28.601 3°6.216 4.5 360 7.2 103650 55
2012-03-26 12:49 51°28.556 3°5.884 5.8 358 7.2 103640 55
2012-03-26 12:50 51°28.521 3°5.551 4.6 360 7.2 103650 55
2012-03-26 12:51 51°28.479 3°5.218 5.1 3 7.2 103650 55
2012-03-26 12:52 51°28.418 3°4.892 4 5 7.1 103650 55
2012-03-26 12:53 51°28.353 3°4.566 4 3 7.2 103650 55
2012-03-26 12:54 51°28.296 3°4.238 5.1 2 7.2 103640 55
2012-03-26 12:55 51°28.268 3°3.924 4 6 7.2 103640 56
2012-03-26 12:56 51°28.262 3°3.693 5.7 15 7.2 103640 56
2012-03-26 12:57 51°28.271 3°3.525 5.2 11 7.2 103640 56
2012-03-26 12:58 51°28.244 3°3.418 3.1 38 7.3 103640 56
2012-03-26 12:59 51°28.197 3°3.393 5.3 36 7.4 103640 55
2012-03-26 13:00 51°28.189 3°3.39 5.1 33 7.4 103640 55
2012-03-26 13:01 51°28.184 3°3.385 5.3 30 7.4 103640 55
2012-03-26 13:02 51°28.176 3°3.382 5 33 7.4 103630 56
2012-03-26 13:03 51°28.167 3°3.381 5.6 30 7.4 103640 55
2012-03-26 13:04 51°28.155 3°3.381 4.7 31 7.5 103640 55
2012-03-26 13:05 51°28.142 3°3.383 4.8 38 7.5 103640 55
2012-03-26 13:06 51°28.128 3°3.387 5.2 37 7.5 103630 54
2012-03-26 13:07 51°28.114 3°3.392 4.7 38 7.5 103630 54
2012-03-26 13:08 51°28.1 3°3.398 4.5 267 7.5 103630 55
2012-03-26 13:09 51°28.086 3°3.405 4.3 266 7.5 103630 54
2012-03-26 13:10 51°28.072 3°3.413 5.5 263 7.5 103630 55
2012-03-26 13:11 51°28.058 3°3.42 6.4 261 7.5 103620 55
2012-03-26 13:12 51°28.045 3°3.428 4.8 259 7.6 103630 55
2012-03-26 13:13 51°28.032 3°3.435 5.9 260 7.7 103630 55
2012-03-26 13:14 51°28.019 3°3.441 6 261 7.8 103620 55
2012-03-26 13:15 51°28.007 3°3.447 5.4 262 7.8 103630 54
2012-03-26 13:16 51°27.995 3°3.454 3.8 265 7.8 103620 55
2012-03-26 13:17 51°27.985 3°3.461 3.7 267 7.7 103620 54
2012-03-26 13:18 51°27.974 3°3.468 4.4 268 7.6 103620 54
2012-03-26 13:19 51°27.964 3°3.476 4.4 270 7.6 103620 55
2012-03-26 13:20 51°27.954 3°3.485 3.8 268 7.6 103620 54
2012-03-26 13:21 51°27.943 3°3.495 4.7 270 7.6 103620 55
2012-03-26 13:22 51°27.903 3°3.508 1.3 31 7.5 103620 54
2012-03-26 13:23 51°27.881 3°3.427 5.4 8 7.6 103620 54
2012-03-26 13:24 51°27.93 3°3.37 6.4 355 7.5 103610 54
2012-03-26 13:25 51°27.978 3°3.352 6.7 350 7.4 103610 54
2012-03-26 13:26 51°28.032 3°3.355 7 341 7.3 103610 54
2012-03-26 13:27 51°28.099 3°3.39 6.2 336 7.4 103600 54
2012-03-26 13:28 51°28.155 3°3.459 6 330 7.5 103600 54
2012-03-26 13:29 51°28.193 3°3.545 7.1 322 7.5 103610 55
2012-03-26 13:30 51°28.214 3°3.634 6.3 32 7.6 103610 54
2012-03-26 13:31 51°28.222 3°3.723 6.3 36 7.6 103600 55
2012-03-26 13:32 51°28.222 3°3.812 5.7 33 7.7 103600 55
2012-03-26 13:33 51°28.223 3°3.899 6 39 7.6 103600 54
2012-03-26 13:34 51°28.223 3°3.984 6.2 31 7.7 103610 54
2012-03-26 13:35 51°28.223 3°4.07 6.1 36 7.7 103610 54
2012-03-26 13:36 51°28.222 3°4.156 6.6 38 7.7 103600 53
2012-03-26 13:37 51°28.22 3°4.241 6.2 241 7.7 103600 54
2012-03-26 13:38 51°28.203 3°4.32 5.5 256 7.7 103600 54
2012-03-26 13:39 51°28.171 3°4.39 5.1 262 7.8 103610 53
2012-03-26 13:40 51°28.13 3°4.454 3.7 262 7.8 103600 53
2012-03-26 13:41 51°28.08 3°4.51 3.8 38 7.8 103600 54
2012-03-26 13:42 51°28.024 3°4.528 3.7 31 7.8 103600 54
2012-03-26 13:43 51°27.977 3°4.519 3 39 7.8 103600 54
2012-03-26 13:44 51°27.949 3°4.51 4.7 35 7.8 103600 54
2012-03-26 13:45 51°27.93 3°4.506 4.5 36 7.7 103600 53
2012-03-26 13:46 51°27.917 3°4.506 4.8 43 7.7 103600 54
2012-03-26 13:47 51°27.873 3°4.44 0.1 44 7.6 103600 54
2012-03-26 13:48 51°27.726 3°4.292 -999 19 7.6 103600 54
2012-03-26 13:49 51°27.554 3°4.139 0.1 341 7.8 103600 55
2012-03-26 13:50 51°27.382 3°3.986 0.1 345 8 103600 55
2012-03-26 13:51 51°27.203 3°3.852 0.6 327 8.1 103590 54
2012-03-26 13:52 51°27.027 3°3.716 -999 346 8.4 103600 55
2012-03-26 13:53 51°26.861 3°3.555 -999 348 8.4 103590 54
2012-03-26 13:54 51°26.685 3°3.425 -999 318 8.5 103600 54
2012-03-26 13:55 51°26.517 3°3.281 0.1 1 8.7 103600 54
2012-03-26 13:56 51°26.349 3°3.137 -999 348 8.7 103590 53
2012-03-26 13:57 51°26.182 3°2.992 1.1 16 8.7 103590 53
2012-03-26 13:58 51°26.016 3°2.844 -999 1 8.7 103590 52
2012-03-26 13:59 51°25.842 3°2.716 -999 -999 8.6 103590 53
2012-03-26 14:00 51°25.672 3°2.57 0.6 20 8.7 103590 53
2012-03-26 14:01 51°25.506 3°2.431 -999 32 8.7 103590 52
2012-03-26 14:02 51°25.328 3°2.313 0.1 17 8.7 103580 52
2012-03-26 14:03 51°25.161 3°2.164 0.2 12 8.8 103590 52
2012-03-26 14:04 51°24.995 3°2.014 1.3 21 8.8 103590 52
2012-03-26 14:05 51°24.824 3°1.875 -999 18 8.7 103580 52
2012-03-26 14:06 51°24.651 3°1.748 -999 357 8.7 103580 53
2012-03-26 14:07 51°24.487 3°1.592 0.8 18 8.8 103590 52
2012-03-26 14:08 51°24.318 3°1.448 -999 21 8.7 103580 52
2012-03-26 14:09 51°24.144 3°1.312 0.1 34 8.8 103580 53
2012-03-26 14:10 51°23.977 3°1.161 0.1 -999 8.8 103580 52
2012-03-26 14:11 51°23.805 3°1.023 -999 22 8.9 103580 52
2012-03-26 14:12 51°23.629 3°0.901 0.1 35 9 103580 53
2012-03-26 14:13 51°23.467 3°0.747 0.4 34 9.1 103570 52
2012-03-26 14:14 51°23.299 3°0.617 0.4 31 9.1 103570 52
2012-03-26 14:15 51°23.14 3°0.471 0.3 44 9.1 103570 52
2012-03-26 14:16 51°22.974 3°0.338 0.1 35 9.1 103570 51
2012-03-26 14:17 51°22.806 3°0.227 0.2 34 9 103570 52
2012-03-26 14:18 51°22.645 3°0.086 1.6 41 9.1 103570 52
2012-03-26 14:19 51°22.49 2°59.932 0.5 34 9.1 103570 51
2012-03-26 14:20 51°22.33 2°59.791 -999 41 9 103570 51
2012-03-26 14:21 51°22.164 2°59.668 0.1 42 9 103570 52
2012-03-26 14:22 51°21.998 2°59.544 -999 41 9.1 103570 52
2012-03-26 14:23 51°21.847 2°59.384 1.7 26 9.2 103570 52
2012-03-26 14:24 51°21.718 2°59.177 2.1 31 9.1 103570 51
2012-03-26 14:25 51°21.585 2°58.977 1.2 26 8.9 103560 51
2012-03-26 14:26 51°21.44 2°58.802 1.3 43 8.8 103560 51
2012-03-26 14:27 51°21.295 2°58.628 1 34 8.7 103560 52
2012-03-26 14:28 51°21.162 2°58.433 2.1 21 8.6 103560 52
2012-03-26 14:29 51°21.029 2°58.24 2.3 28 8.6 103560 52
2012-03-26 14:30 51°20.886 2°58.065 0.3 43 8.5 103550 52
2012-03-26 14:31 51°20.747 2°57.883 1.3 22 8.5 103550 52
2012-03-26 14:32 51°20.61 2°57.695 0.9 35 8.5 103550 53
2012-03-26 14:33 51°20.472 2°57.507 2.5 24 8.5 103550 52
2012-03-26 14:34 51°20.336 2°57.32 1.6 29 8.5 103550 52
2012-03-26 14:35 51°20.202 2°57.131 1.5 19 8.5 103560 53
2012-03-26 14:36 51°20.061 2°56.951 1 23 8.5 103560 53
2012-03-26 14:37 51°19.932 2°56.753 1 15 8.5 103550 52
2012-03-26 14:38 51°19.795 2°56.568 0.4 18 8.5 103550 52
2012-03-26 14:39 51°19.652 2°56.393 1.3 25 8.5 103550 53
2012-03-26 14:40 51°19.524 2°56.19 1.8 24 8.5 103550 53
2012-03-26 14:41 51°19.388 2°56.001 1.4 35 8.5 103550 52
2012-03-26 14:42 51°19.253 2°55.808 2.8 28 8.5 103550 52
2012-03-26 14:43 51°19.113 2°55.623 1.7 29 8.6 103550 52
2012-03-26 14:44 51°18.987 2°55.412 3.8 26 8.6 103540 52
2012-03-26 14:45 51°18.878 2°55.179 4.2 26 8.5 103540 52
2012-03-26 14:46 51°18.765 2°54.95 2.4 32 8.5 103540 52
2012-03-26 14:47 51°18.633 2°54.745 3.1 33 8.5 103540 52
2012-03-26 14:48 51°18.511 2°54.53 3.9 25 8.4 103540 52
2012-03-26 14:49 51°18.404 2°54.294 3.5 25 8.4 103540 52
2012-03-26 14:50 51°18.29 2°54.066 2.4 29 8.5 103540 52
2012-03-26 14:51 51°18.142 2°53.894 -999 39 8.5 103550 53
2012-03-26 14:52 51°17.987 2°53.736 0.9 38 8.6 103550 53
2012-03-26 14:53 51°17.835 2°53.575 0.3 34 8.7 103540 53
2012-03-26 14:54 51°17.687 2°53.401 1.3 36 8.8 103550 52
2012-03-26 14:55 51°17.519 2°53.285 0.8 36 8.8 103540 52
2012-03-26 14:56 51°17.335 2°53.228 1.1 264 8.9 103540 52
2012-03-26 14:57 51°17.146 2°53.216 2.7 255 9 103540 51
2012-03-26 14:58 51°16.956 2°53.202 2.7 264 9 103540 51
2012-03-26 14:59 51°16.764 2°53.211 4.2 263 9 103540 51
2012-03-26 15:00 51°16.569 2°53.264 4.9 262 9 103530 51
2012-03-26 15:01 51°16.374 2°53.303 4.5 262 9 103530 51
2012-03-26 15:02 51°16.183 2°53.367 6.2 256 9 103530 51
2012-03-26 15:03 51°15.99 2°53.457 4.7 254 9.1 103530 51
2012-03-26 15:04 51°15.798 2°53.549 6.3 253 9.1 103530 51
2012-03-26 15:05 51°15.629 2°53.727 8.3 246 9.1 103520 51
2012-03-26 15:06 51°15.468 2°53.932 7.5 242 9.1 103510 50
2012-03-26 15:07 51°15.304 2°54.13 7.4 244 9 103510 50
2012-03-26 15:08 51°15.143 2°54.331 7.3 19 8.9 103510 51
2012-03-26 15:09 51°14.979 2°54.53 8.5 245 8.9 103510 50
2012-03-26 15:10 51°14.818 2°54.735 7 243 8.8 103500 51
2012-03-26 15:11 51°14.649 2°54.902 6.8 247 8.8 103510 51
2012-03-26 15:12 51°14.478 2°55.046 6.5 22 8.9 103510 51
2012-03-26 15:13 51°14.313 2°55.216 7.4 243 8.9 103510 51
2012-03-26 15:14 51°14.16 2°55.379 5.6 241 8.9 103510 51
2012-03-26 15:15 51°14.016 2°55.487 3.8 247 8.9 103520 51
2012-03-26 15:16 51°13.899 2°55.569 4 263 9 103520 52
2012-03-26 15:17 51°13.789 2°55.66 2.6 38 9.1 103520 51
2012-03-26 15:18 51°13.712 2°55.775 7 244 9.2 103510 51
2012-03-26 15:19 51°13.664 2°55.881 3.1 243 9.4 103510 50
2012-03-26 15:20 51°13.643 2°55.969 6.9 238 9.6 103520 49
2012-03-26 15:21 51°13.635 2°56.013 5.4 256 9.8 103520 48
2012-03-26 15:22 51°13.635 2°56.018 5 259 10 103520 47
2012-03-26 15:23 51°13.636 2°56.018 5.2 264 10 103530 46
2012-03-26 15:24 51°13.635 2°56.018 6.3 263 10 103520 47
2012-03-26 15:25 51°13.635 2°56.018 5.5 263 10 103520 46
2012-03-26 15:26 51°13.636 2°56.017 4.8 256 10 103510 46
2012-03-26 15:27 51°13.636 2°56.018 7.7 258 10 103520 46
2012-03-26 15:28 51°13.636 2°56.018 5.7 262 10 103520 46